Centerville, Maine
Current Conditions -  °F | °C
As of 5:55 PM on Thursday 23 Oct 2014 (Local Time) from KBHB Reporting Station
Overcast Overcast  
Wind Chill: 52°   Ceiling: 900
Heat Index: 52°   Visibility: 7mi
Dew Point: 52°   Wind: 13mph
Humidity: 100%   Direction: 30°NNE
Pressure: 29.76"   Gusts: 21mph
Location:  44.7099°N, 67.7366°W
Report Text: KBHB 232155Z AUTO 03011G18KT 7SM OVC009 11/11 A2976 RMK AO1 P0011
Loading
Personal Weather Stations






























Interactive Weather Map
Tropical Storm Tracking
New forecast layout! Learn more

10-Day Weather Forecast

Advertisements
Track Severe Weather on mobile